createdAt,value
2023-07-15T00:01:29.285Z,100746.71
2023-07-15T00:06:32.653Z,100745.63
2023-07-15T00:11:44.174Z,100742.39
2023-07-15T00:16:47.060Z,100738.18
2023-07-15T00:21:50.106Z,100735.98
2023-07-15T00:26:54.184Z,100733.11
2023-07-15T00:31:58.607Z,100734.61
2023-07-15T00:37:01.546Z,100731.14
2023-07-15T00:42:10.989Z,100730.36
2023-07-15T00:47:29.403Z,100728.98
2023-07-15T00:52:33.661Z,100729.84
2023-07-15T00:57:36.705Z,100732.50
2023-07-15T01:02:39.654Z,100733.48
2023-07-15T01:07:42.863Z,100730.14
2023-07-15T01:12:45.870Z,100728.20
2023-07-15T01:17:48.711Z,100726.67
2023-07-15T01:22:51.822Z,100729.77
2023-07-15T01:27:54.734Z,100730.34
2023-07-15T01:32:57.721Z,100723.04
2023-07-15T01:38:00.758Z,100721.53
2023-07-15T01:43:05.670Z,100720.39
2023-07-15T01:48:11.373Z,100718.49
2023-07-15T01:53:16.180Z,100717.80
2023-07-15T01:58:19.105Z,100726.45
2023-07-15T02:03:22.026Z,100729.23
2023-07-15T02:08:25.522Z,100721.71
2023-07-15T02:13:29.540Z,100720.77
2023-07-15T02:18:32.386Z,100727.53
2023-07-15T02:23:35.320Z,100722.58
2023-07-15T02:28:38.687Z,100726.68
2023-07-15T02:33:41.605Z,100719.48
2023-07-15T02:38:44.538Z,100720.33
2023-07-15T02:43:47.497Z,100723.89
2023-07-15T02:48:50.392Z,100726.59
2023-07-15T02:53:53.422Z,100725.95
2023-07-15T02:58:56.392Z,100727.36
2023-07-15T03:03:59.264Z,100726.94
2023-07-15T03:09:02.096Z,100726.32
2023-07-15T03:14:06.076Z,100730.17
2023-07-15T03:19:09.089Z,100726.90
2023-07-15T03:24:11.945Z,100724.35
2023-07-15T03:29:14.888Z,100726.79
2023-07-15T03:34:17.881Z,100727.52
2023-07-15T03:39:22.578Z,100722.81
2023-07-15T03:44:25.689Z,100723.29
2023-07-15T03:49:28.553Z,100731.46
2023-07-15T03:54:31.488Z,100732.49
2023-07-15T03:59:34.491Z,100729.04
2023-07-15T04:04:37.414Z,100727.54
2023-07-15T04:09:40.305Z,100741.82
2023-07-15T04:14:43.396Z,100743.32
2023-07-15T04:19:46.308Z,100742.50
2023-07-15T04:24:50.655Z,100745.80
2023-07-15T04:29:53.690Z,100753.05
2023-07-15T04:34:56.551Z,100744.88
2023-07-15T04:39:59.451Z,100742.02
2023-07-15T04:45:02.303Z,100745.70
2023-07-15T04:50:06.402Z,100751.05
2023-07-15T04:55:10.422Z,100739.95
2023-07-15T05:00:14.089Z,100739.74
2023-07-15T05:05:17.041Z,100738.77
2023-07-15T05:10:20.099Z,100732.70
2023-07-15T05:15:23.642Z,100724.52
2023-07-15T05:20:26.778Z,100722.84
2023-07-15T05:25:30.288Z,100724.89
2023-07-15T05:30:36.092Z,100729.89
2023-07-15T05:35:39.037Z,100729.72
2023-07-15T05:40:43.135Z,100729.46
2023-07-15T05:45:47.208Z,100728.36
2023-07-15T05:50:50.133Z,100728.44
2023-07-15T05:55:55.502Z,100731.81
2023-07-15T06:00:59.647Z,100725.52
2023-07-15T06:06:03.396Z,100726.91
2023-07-15T06:11:06.537Z,100726.52
2023-07-15T06:16:09.428Z,100729.09
2023-07-15T06:21:12.474Z,100723.42
2023-07-15T06:26:15.841Z,100723.23
2023-07-15T06:31:19.243Z,100724.14
2023-07-15T06:36:22.836Z,100725.04
2023-07-15T06:41:25.781Z,100724.88
2023-07-15T06:46:28.659Z,100718.64
2023-07-15T06:51:31.593Z,100717.73
2023-07-15T06:56:34.500Z,100716.06
2023-07-15T07:01:39.021Z,100710.05
2023-07-15T07:06:42.037Z,100711.30
2023-07-15T07:11:44.890Z,100705.84
2023-07-15T07:16:47.883Z,100707.09
2023-07-15T07:21:50.775Z,100706.48
2023-07-15T07:26:53.781Z,100700.09
2023-07-15T07:31:56.663Z,100704.19
2023-07-15T07:37:00.547Z,100700.75
2023-07-15T07:42:05.761Z,100700.81
2023-07-15T07:47:08.678Z,100693.95
2023-07-15T07:52:11.581Z,100690.40
2023-07-15T07:57:15.471Z,100691.54
2023-07-15T08:02:18.557Z,100683.59
2023-07-15T08:07:21.654Z,100687.60
2023-07-15T08:12:24.558Z,100682.91
2023-07-15T08:17:27.529Z,100692.67
2023-07-15T08:22:30.456Z,100697.87
2023-07-15T08:27:33.424Z,100696.72
2023-07-15T08:32:37.457Z,100690.98
2023-07-15T08:37:41.607Z,100686.50
2023-07-15T08:42:44.459Z,100677.06
2023-07-15T08:47:47.477Z,100669.24
2023-07-15T08:52:50.431Z,100665.95
2023-07-15T08:57:53.291Z,100657.66
2023-07-15T09:02:56.423Z,100662.92
2023-07-15T09:07:59.426Z,100663.88
2023-07-15T09:13:02.386Z,100658.66
2023-07-15T09:18:09.652Z,100652.90
2023-07-15T09:23:13.048Z,100649.46
2023-07-15T09:28:15.962Z,100643.36
2023-07-15T09:33:29.487Z,100640.52
2023-07-15T09:38:38.205Z,100639.68
2023-07-15T09:43:49.383Z,100637.69
2023-07-15T09:48:52.570Z,100629.40
2023-07-15T09:53:56.546Z,100626.33
2023-07-15T09:59:07.083Z,100625.13
2023-07-15T10:04:22.830Z,100620.56
2023-07-15T10:09:25.699Z,100614.99
2023-07-15T10:14:31.492Z,100606.56
2023-07-15T10:19:51.864Z,100602.02
2023-07-15T10:24:57.131Z,100600.63
2023-07-15T10:30:19.582Z,100600.51
2023-07-15T10:35:22.469Z,100596.74
2023-07-15T10:41:03.726Z,100594.66
2023-07-15T10:46:14.451Z,100597.92
2023-07-15T10:51:17.679Z,100591.70
2023-07-15T10:56:21.034Z,100589.91
2023-07-15T11:01:23.963Z,100587.90
2023-07-15T11:06:27.129Z,100583.33
2023-07-15T11:11:30.689Z,100574.30
2023-07-15T11:16:37.233Z,100574.38
2023-07-15T11:21:40.156Z,100569.44
2023-07-15T11:26:44.159Z,100570.19
2023-07-15T11:31:49.517Z,100566.63
2023-07-15T11:36:55.000Z,100555.89
2023-07-15T11:41:58.191Z,100556.29
2023-07-15T11:47:01.180Z,100549.72
2023-07-15T11:52:04.366Z,100549.39
2023-07-15T11:57:07.422Z,100545.52
2023-07-15T12:02:10.980Z,100542.63
2023-07-15T12:07:13.892Z,100535.09
2023-07-15T12:12:16.829Z,100528.71
2023-07-15T12:17:19.785Z,100521.14
2023-07-15T12:22:22.652Z,100517.45
2023-07-15T12:27:25.609Z,100507.26
2023-07-15T12:32:28.524Z,100506.23
2023-07-15T12:37:31.431Z,100504.20
2023-07-15T12:42:36.440Z,100506.04
2023-07-15T12:47:39.432Z,100502.93
2023-07-15T12:52:42.303Z,100499.99
2023-07-15T12:57:45.967Z,100501.91
2023-07-15T13:02:49.100Z,100487.81
2023-07-15T13:07:52.143Z,100487.92
2023-07-15T13:12:55.067Z,100484.42
2023-07-15T13:17:58.109Z,100481.74
2023-07-15T13:23:01.146Z,100476.11
2023-07-15T13:28:05.245Z,100475.51
2023-07-15T13:33:08.187Z,100462.56
2023-07-15T13:38:11.186Z,100458.74
2023-07-15T13:43:14.033Z,100461.48
2023-07-15T13:48:17.144Z,100459.41
2023-07-15T13:53:20.129Z,100455.98
2023-07-15T13:58:23.151Z,100458.31
2023-07-15T14:03:26.013Z,100453.85
2023-07-15T14:08:28.934Z,100447.30
2023-07-15T14:13:33.630Z,100446.67
2023-07-15T14:18:38.724Z,100439.27
2023-07-15T14:23:41.695Z,100444.00
2023-07-15T14:28:45.032Z,100444.08
2023-07-15T14:33:48.386Z,100444.29
2023-07-15T14:38:51.765Z,100436.09
2023-07-15T14:43:54.677Z,100435.28
2023-07-15T14:48:57.580Z,100430.70
2023-07-15T14:54:00.668Z,100428.59
2023-07-15T14:59:03.676Z,100416.88
2023-07-15T15:04:06.705Z,100411.60
2023-07-15T15:09:09.670Z,100402.44
2023-07-15T15:14:12.528Z,100400.95
2023-07-15T15:19:15.445Z,100400.56
2023-07-15T15:24:19.017Z,100396.96
2023-07-15T15:29:22.057Z,100394.04
2023-07-15T15:34:24.896Z,100396.97
2023-07-15T15:39:27.737Z,100393.30
2023-07-15T15:44:30.680Z,100391.82
2023-07-15T15:49:33.545Z,100391.57
2023-07-15T15:54:37.084Z,100388.04
2023-07-15T15:59:40.857Z,100392.10
2023-07-15T16:04:44.121Z,100396.08
2023-07-15T16:09:47.058Z,100390.64
2023-07-15T16:14:49.921Z,100383.55
2023-07-15T16:19:52.754Z,100383.11
2023-07-15T16:24:55.578Z,100384.90
2023-07-15T16:29:59.874Z,100382.69
2023-07-15T16:35:02.985Z,100386.30
2023-07-15T16:40:07.009Z,100382.98
2023-07-15T16:45:10.345Z,100382.55
2023-07-15T16:50:16.310Z,100376.86
2023-07-15T16:55:19.341Z,100376.77
2023-07-15T17:00:22.228Z,100379.94
2023-07-15T17:05:25.115Z,100373.21
2023-07-15T17:10:28.087Z,100378.07
2023-07-15T17:15:31.096Z,100380.82
2023-07-15T17:20:34.015Z,100377.77
2023-07-15T17:25:43.225Z,100377.27
2023-07-15T17:30:46.066Z,100378.67
2023-07-15T17:35:49.949Z,100377.49
2023-07-15T17:40:52.785Z,100379.23
2023-07-15T17:45:55.675Z,100379.67
2023-07-15T17:50:58.734Z,100386.23
2023-07-15T17:56:02.169Z,100390.95
2023-07-15T18:01:05.078Z,100389.15
2023-07-15T18:06:08.267Z,100391.53
2023-07-15T18:11:11.933Z,100391.02
2023-07-15T18:16:14.867Z,100389.71
2023-07-15T18:21:20.487Z,100390.66
2023-07-15T18:26:24.055Z,100389.18
2023-07-15T18:31:27.271Z,100388.84
2023-07-15T18:36:30.243Z,100390.45
2023-07-15T18:41:33.134Z,100395.25
2023-07-15T18:46:35.965Z,100396.08
2023-07-15T18:51:38.968Z,100399.14
2023-07-15T18:56:41.776Z,100402.48
2023-07-15T19:01:44.871Z,100404.23
2023-07-15T19:06:48.366Z,100409.00
2023-07-15T19:11:53.103Z,100412.48
2023-07-15T19:16:56.013Z,100414.79
2023-07-15T19:21:59.338Z,100420.47
2023-07-15T19:27:02.428Z,100423.04
2023-07-15T19:32:06.020Z,100422.57
2023-07-15T19:37:09.939Z,100422.97
2023-07-15T19:42:12.884Z,100422.70
2023-07-15T19:47:16.277Z,100428.48
2023-07-15T19:52:19.228Z,100430.30
2023-07-15T19:57:22.034Z,100426.55
2023-07-15T20:02:25.009Z,100425.80
2023-07-15T20:07:28.551Z,100429.95
2023-07-15T20:12:32.162Z,100432.83
2023-07-15T20:17:35.131Z,100427.60
2023-07-15T20:22:38.030Z,100429.15
2023-07-15T20:27:41.009Z,100432.57
2023-07-15T20:32:43.862Z,100435.64
2023-07-15T20:37:46.887Z,100433.67
2023-07-15T20:42:49.748Z,100441.00
2023-07-15T20:47:53.649Z,100445.34
2023-07-15T20:52:56.532Z,100444.30
2023-07-15T20:57:59.452Z,100443.60
2023-07-15T21:03:02.474Z,100441.70
2023-07-15T21:08:06.229Z,100447.01
2023-07-15T21:13:09.772Z,100445.73
2023-07-15T21:18:13.459Z,100438.78
2023-07-15T21:23:19.265Z,100440.30
2023-07-15T21:28:33.507Z,100436.71
2023-07-15T21:33:36.581Z,100441.49
2023-07-15T21:38:39.477Z,100444.05
2023-07-15T21:43:42.342Z,100444.70
2023-07-15T21:48:45.841Z,100447.00
2023-07-15T21:53:48.782Z,100445.33
2023-07-15T21:58:51.752Z,100448.67
2023-07-15T22:03:54.631Z,100445.23
2023-07-15T22:08:57.534Z,100444.42
2023-07-15T22:14:00.451Z,100443.54
2023-07-15T22:19:03.922Z,100448.57
2023-07-15T22:24:06.927Z,100442.80
2023-07-15T22:29:09.855Z,100440.95
2023-07-15T22:34:12.719Z,100442.70
2023-07-15T22:39:15.752Z,100442.20
2023-07-15T22:44:18.752Z,100440.81
2023-07-15T22:49:21.653Z,100433.66
2023-07-15T22:54:24.555Z,100431.88
2023-07-15T22:59:27.529Z,100432.84
2023-07-15T23:04:30.397Z,100434.58
2023-07-15T23:09:33.256Z,100426.88
2023-07-15T23:14:36.238Z,100421.59
2023-07-15T23:19:39.117Z,100423.65
2023-07-15T23:24:42.129Z,100425.63
2023-07-15T23:29:45.132Z,100426.08
2023-07-15T23:34:48.071Z,100419.51
2023-07-15T23:39:53.752Z,100421.09
2023-07-15T23:44:56.639Z,100420.50
2023-07-15T23:49:59.722Z,100418.58
2023-07-15T23:55:02.590Z,100415.59
